sensor_id;sensor_type;location;lat;lon;timestamp;P1;durP1;ratioP1;P2;durP2;ratioP2
1414;SDS011;702;49.466;11.086;2024-02-23T00:02:06;1.23;;;0.40;;
1414;SDS011;702;49.466;11.086;2024-02-23T00:04:33;0.60;;;0.30;;
1414;SDS011;702;49.466;11.086;2024-02-23T00:07:01;0.40;;;0.33;;
1414;SDS011;702;49.466;11.086;2024-02-23T00:09:31;0.87;;;0.30;;
1414;SDS011;702;49.466;11.086;2024-02-23T00:11:59;2.47;;;0.40;;
1414;SDS011;702;49.466;11.086;2024-02-23T00:14:26;0.40;;;0.33;;
1414;SDS011;702;49.466;11.086;2024-02-23T00:16:54;0.80;;;0.30;;
1414;SDS011;702;49.466;11.086;2024-02-23T00:19:22;1.13;;;0.33;;
1414;SDS011;702;49.466;11.086;2024-02-23T00:21:50;0.50;;;0.40;;
1414;SDS011;702;49.466;11.086;2024-02-23T00:24:18;0.43;;;0.40;;
1414;SDS011;702;49.466;11.086;2024-02-23T00:26:47;0.67;;;0.30;;
1414;SDS011;702;49.466;11.086;2024-02-23T00:29:16;0.63;;;0.40;;
1414;SDS011;702;49.466;11.086;2024-02-23T00:31:43;0.70;;;0.30;;
1414;SDS011;702;49.466;11.086;2024-02-23T00:34:11;0.40;;;0.27;;
1414;SDS011;702;49.466;11.086;2024-02-23T00:36:41;0.40;;;0.20;;
1414;SDS011;702;49.466;11.086;2024-02-23T00:39:10;0.53;;;0.30;;
1414;SDS011;702;49.466;11.086;2024-02-23T00:41:37;0.40;;;0.30;;
1414;SDS011;702;49.466;11.086;2024-02-23T00:44:05;0.60;;;0.33;;
1414;SDS011;702;49.466;11.086;2024-02-23T00:46:32;0.60;;;0.23;;
1414;SDS011;702;49.466;11.086;2024-02-23T00:48:59;0.53;;;0.30;;
1414;SDS011;702;49.466;11.086;2024-02-23T00:51:27;0.40;;;0.33;;
1414;SDS011;702;49.466;11.086;2024-02-23T00:53:56;0.30;;;0.20;;
1414;SDS011;702;49.466;11.086;2024-02-23T00:56:24;2.97;;;0.20;;
1414;SDS011;702;49.466;11.086;2024-02-23T00:58:52;0.80;;;0.37;;
1414;SDS011;702;49.466;11.086;2024-02-23T01:01:20;0.40;;;0.20;;
1414;SDS011;702;49.466;11.086;2024-02-23T01:03:47;0.30;;;0.20;;
1414;SDS011;702;49.466;11.086;2024-02-23T01:06:14;0.60;;;0.40;;
1414;SDS011;702;49.466;11.086;2024-02-23T01:08:42;1.27;;;0.30;;
1414;SDS011;702;49.466;11.086;2024-02-23T01:11:14;1.23;;;0.30;;
1414;SDS011;702;49.466;11.086;2024-02-23T01:13:41;0.80;;;0.30;;
1414;SDS011;702;49.466;11.086;2024-02-23T01:16:11;0.40;;;0.20;;
1414;SDS011;702;49.466;11.086;2024-02-23T01:18:38;0.60;;;0.30;;
1414;SDS011;702;49.466;11.086;2024-02-23T01:21:06;0.83;;;0.20;;
1414;SDS011;702;49.466;11.086;2024-02-23T01:23:34;0.50;;;0.20;;
1414;SDS011;702;49.466;11.086;2024-02-23T01:26:02;3.50;;;0.40;;
1414;SDS011;702;49.466;11.086;2024-02-23T01:28:30;1.03;;;0.27;;
1414;SDS011;702;49.466;11.086;2024-02-23T01:30:59;1.00;;;0.20;;
1414;SDS011;702;49.466;11.086;2024-02-23T01:33:26;0.40;;;0.30;;
1414;SDS011;702;49.466;11.086;2024-02-23T01:35:53;0.50;;;0.30;;
1414;SDS011;702;49.466;11.086;2024-02-23T01:38:22;1.13;;;0.50;;
1414;SDS011;702;49.466;11.086;2024-02-23T01:40:50;0.77;;;0.30;;
1414;SDS011;702;49.466;11.086;2024-02-23T01:43:17;1.30;;;0.53;;
1414;SDS011;702;49.466;11.086;2024-02-23T01:45:46;0.43;;;0.30;;
1414;SDS011;702;49.466;11.086;2024-02-23T01:48:13;0.50;;;0.40;;
1414;SDS011;702;49.466;11.086;2024-02-23T01:50:41;0.97;;;0.40;;
1414;SDS011;702;49.466;11.086;2024-02-23T01:53:09;0.50;;;0.30;;
1414;SDS011;702;49.466;11.086;2024-02-23T01:55:39;1.07;;;0.50;;
1414;SDS011;702;49.466;11.086;2024-02-23T01:58:07;0.77;;;0.30;;
1414;SDS011;702;49.466;11.086;2024-02-23T02:00:35;0.73;;;0.37;;
1414;SDS011;702;49.466;11.086;2024-02-23T02:03:04;1.63;;;0.60;;
1414;SDS011;702;49.466;11.086;2024-02-23T02:05:32;0.50;;;0.30;;
1414;SDS011;702;49.466;11.086;2024-02-23T02:07:59;0.60;;;0.40;;
1414;SDS011;702;49.466;11.086;2024-02-23T02:10:27;0.50;;;0.27;;
1414;SDS011;702;49.466;11.086;2024-02-23T02:12:54;0.70;;;0.40;;
1414;SDS011;702;49.466;11.086;2024-02-23T02:15:21;0.77;;;0.50;;
1414;SDS011;702;49.466;11.086;2024-02-23T02:17:48;0.90;;;0.40;;
1414;SDS011;702;49.466;11.086;2024-02-23T02:20:23;0.70;;;0.40;;
1414;SDS011;702;49.466;11.086;2024-02-23T02:22:51;0.57;;;0.50;;
1414;SDS011;702;49.466;11.086;2024-02-23T02:25:19;1.10;;;0.53;;
1414;SDS011;702;49.466;11.086;2024-02-23T02:27:46;2.70;;;0.70;;
1414;SDS011;702;49.466;11.086;2024-02-23T02:30:14;0.60;;;0.30;;
1414;SDS011;702;49.466;11.086;2024-02-23T02:32:41;0.70;;;0.50;;
1414;SDS011;702;49.466;11.086;2024-02-23T02:35:10;4.27;;;0.40;;
1414;SDS011;702;49.466;11.086;2024-02-23T02:37:39;0.90;;;0.30;;
1414;SDS011;702;49.466;11.086;2024-02-23T02:40:09;1.30;;;0.40;;
1414;SDS011;702;49.466;11.086;2024-02-23T02:42:38;1.57;;;0.60;;
1414;SDS011;702;49.466;11.086;2024-02-23T02:45:07;0.93;;;0.37;;
1414;SDS011;702;49.466;11.086;2024-02-23T02:47:35;0.67;;;0.40;;
1414;SDS011;702;49.466;11.086;2024-02-23T02:50:02;1.23;;;0.40;;
1414;SDS011;702;49.466;11.086;2024-02-23T02:52:31;0.40;;;0.30;;
1414;SDS011;702;49.466;11.086;2024-02-23T02:55:00;2.50;;;0.50;;
1414;SDS011;702;49.466;11.086;2024-02-23T02:57:27;1.83;;;0.60;;
1414;SDS011;702;49.466;11.086;2024-02-23T02:59:55;1.70;;;0.40;;
1414;SDS011;702;49.466;11.086;2024-02-23T03:02:22;4.83;;;1.73;;
1414;SDS011;702;49.466;11.086;2024-02-23T03:04:50;0.90;;;0.60;;
1414;SDS011;702;49.466;11.086;2024-02-23T03:07:19;1.00;;;0.37;;
1414;SDS011;702;49.466;11.086;2024-02-23T03:09:47;1.17;;;0.50;;
1414;SDS011;702;49.466;11.086;2024-02-23T03:12:16;3.30;;;0.80;;
1414;SDS011;702;49.466;11.086;2024-02-23T03:14:43;0.83;;;0.50;;
1414;SDS011;702;49.466;11.086;2024-02-23T03:17:11;0.60;;;0.23;;
1414;SDS011;702;49.466;11.086;2024-02-23T03:19:39;3.03;;;0.60;;
1414;SDS011;702;49.466;11.086;2024-02-23T03:22:06;1.00;;;0.77;;
1414;SDS011;702;49.466;11.086;2024-02-23T03:24:34;2.53;;;0.67;;
1414;SDS011;702;49.466;11.086;2024-02-23T03:27:01;1.17;;;0.50;;
1414;SDS011;702;49.466;11.086;2024-02-23T03:29:35;0.50;;;0.40;;
1414;SDS011;702;49.466;11.086;2024-02-23T03:32:05;0.90;;;0.50;;
1414;SDS011;702;49.466;11.086;2024-02-23T03:34:32;2.00;;;0.67;;
1414;SDS011;702;49.466;11.086;2024-02-23T03:37:00;1.37;;;0.50;;
1414;SDS011;702;49.466;11.086;2024-02-23T03:39:27;1.57;;;0.73;;
1414;SDS011;702;49.466;11.086;2024-02-23T03:41:55;0.63;;;0.40;;
1414;SDS011;702;49.466;11.086;2024-02-23T03:44:23;1.27;;;0.73;;
1414;SDS011;702;49.466;11.086;2024-02-23T03:46:51;1.23;;;0.47;;
1414;SDS011;702;49.466;11.086;2024-02-23T03:49:19;1.83;;;0.90;;
1414;SDS011;702;49.466;11.086;2024-02-23T03:51:46;0.90;;;0.53;;
1414;SDS011;702;49.466;11.086;2024-02-23T03:54:15;2.23;;;0.63;;
1414;SDS011;702;49.466;11.086;2024-02-23T03:56:42;2.30;;;0.50;;
1414;SDS011;702;49.466;11.086;2024-02-23T03:59:09;2.87;;;0.80;;
1414;SDS011;702;49.466;11.086;2024-02-23T04:01:37;1.90;;;0.50;;
1414;SDS011;702;49.466;11.086;2024-02-23T04:04:06;1.93;;;0.77;;
1414;SDS011;702;49.466;11.086;2024-02-23T04:06:33;5.57;;;0.70;;
1414;SDS011;702;49.466;11.086;2024-02-23T04:09:00;3.23;;;0.67;;
1414;SDS011;702;49.466;11.086;2024-02-23T04:11:27;2.30;;;0.90;;
1414;SDS011;702;49.466;11.086;2024-02-23T04:13:55;2.37;;;0.60;;
1414;SDS011;702;49.466;11.086;2024-02-23T04:16:24;2.40;;;0.83;;
1414;SDS011;702;49.466;11.086;2024-02-23T04:18:51;1.17;;;0.70;;
1414;SDS011;702;49.466;11.086;2024-02-23T04:21:20;2.33;;;0.53;;
1414;SDS011;702;49.466;11.086;2024-02-23T04:23:48;4.17;;;1.27;;
1414;SDS011;702;49.466;11.086;2024-02-23T04:26:15;6.73;;;1.43;;
1414;SDS011;702;49.466;11.086;2024-02-23T04:28:42;2.90;;;0.90;;
1414;SDS011;702;49.466;11.086;2024-02-23T04:31:10;1.90;;;0.70;;
1414;SDS011;702;49.466;11.086;2024-02-23T04:33:38;2.70;;;0.60;;
1414;SDS011;702;49.466;11.086;2024-02-23T04:36:06;1.23;;;0.60;;
1414;SDS011;702;49.466;11.086;2024-02-23T04:38:35;5.20;;;0.97;;
1414;SDS011;702;49.466;11.086;2024-02-23T04:41:03;4.07;;;0.80;;
1414;SDS011;702;49.466;11.086;2024-02-23T04:43:31;1.60;;;1.00;;
1414;SDS011;702;49.466;11.086;2024-02-23T04:45:58;1.80;;;0.80;;
1414;SDS011;702;49.466;11.086;2024-02-23T04:48:25;4.43;;;1.20;;
1414;SDS011;702;49.466;11.086;2024-02-23T04:50:53;1.57;;;0.40;;
1414;SDS011;702;49.466;11.086;2024-02-23T04:53:20;2.47;;;0.90;;
1414;SDS011;702;49.466;11.086;2024-02-23T04:55:48;1.37;;;0.80;;
1414;SDS011;702;49.466;11.086;2024-02-23T04:58:16;2.77;;;1.00;;
1414;SDS011;702;49.466;11.086;2024-02-23T05:00:43;2.63;;;0.90;;
1414;SDS011;702;49.466;11.086;2024-02-23T05:03:10;2.77;;;0.70;;
1414;SDS011;702;49.466;11.086;2024-02-23T05:05:37;1.90;;;0.80;;
1414;SDS011;702;49.466;11.086;2024-02-23T05:08:05;1.17;;;0.60;;
1414;SDS011;702;49.466;11.086;2024-02-23T05:10:32;2.00;;;0.60;;
1414;SDS011;702;49.466;11.086;2024-02-23T05:13:01;3.97;;;0.53;;
1414;SDS011;702;49.466;11.086;2024-02-23T05:15:28;2.50;;;0.80;;
1414;SDS011;702;49.466;11.086;2024-02-23T05:17:55;3.87;;;0.77;;
1414;SDS011;702;49.466;11.086;2024-02-23T05:20:22;5.70;;;2.00;;
1414;SDS011;702;49.466;11.086;2024-02-23T05:22:51;2.80;;;1.80;;
1414;SDS011;702;49.466;11.086;2024-02-23T05:25:18;3.77;;;0.87;;
1414;SDS011;702;49.466;11.086;2024-02-23T05:27:46;6.60;;;1.47;;
1414;SDS011;702;49.466;11.086;2024-02-23T05:30:15;4.20;;;0.90;;
1414;SDS011;702;49.466;11.086;2024-02-23T05:32:42;3.63;;;0.70;;
1414;SDS011;702;49.466;11.086;2024-02-23T05:35:09;5.30;;;1.80;;
1414;SDS011;702;49.466;11.086;2024-02-23T05:37:36;0.90;;;0.73;;
1414;SDS011;702;49.466;11.086;2024-02-23T05:40:04;4.60;;;0.77;;
1414;SDS011;702;49.466;11.086;2024-02-23T05:42:35;2.30;;;0.90;;
1414;SDS011;702;49.466;11.086;2024-02-23T05:45:03;2.43;;;1.20;;
1414;SDS011;702;49.466;11.086;2024-02-23T05:47:35;2.10;;;0.90;;
1414;SDS011;702;49.466;11.086;2024-02-23T05:50:03;1.50;;;0.67;;
1414;SDS011;702;49.466;11.086;2024-02-23T05:52:32;2.20;;;0.80;;
1414;SDS011;702;49.466;11.086;2024-02-23T05:54:59;2.33;;;0.77;;
1414;SDS011;702;49.466;11.086;2024-02-23T05:57:26;3.17;;;1.07;;
1414;SDS011;702;49.466;11.086;2024-02-23T05:59:54;1.23;;;0.80;;
1414;SDS011;702;49.466;11.086;2024-02-23T06:02:21;7.13;;;1.30;;
1414;SDS011;702;49.466;11.086;2024-02-23T06:04:50;3.97;;;0.93;;
1414;SDS011;702;49.466;11.086;2024-02-23T06:07:18;2.70;;;1.23;;
1414;SDS011;702;49.466;11.086;2024-02-23T06:09:48;4.30;;;1.60;;
1414;SDS011;702;49.466;11.086;2024-02-23T06:12:15;1.67;;;1.03;;
1414;SDS011;702;49.466;11.086;2024-02-23T06:14:42;3.50;;;1.73;;
1414;SDS011;702;49.466;11.086;2024-02-23T06:17:10;1.83;;;1.17;;
1414;SDS011;702;49.466;11.086;2024-02-23T06:19:37;4.83;;;1.10;;
1414;SDS011;702;49.466;11.086;2024-02-23T06:22:06;5.13;;;1.67;;
1414;SDS011;702;49.466;11.086;2024-02-23T06:24:35;5.83;;;1.60;;
1414;SDS011;702;49.466;11.086;2024-02-23T06:27:02;7.20;;;1.40;;
1414;SDS011;702;49.466;11.086;2024-02-23T06:29:30;3.20;;;0.80;;
1414;SDS011;702;49.466;11.086;2024-02-23T06:31:57;2.70;;;0.80;;
1414;SDS011;702;49.466;11.086;2024-02-23T06:34:28;2.60;;;1.23;;
1414;SDS011;702;49.466;11.086;2024-02-23T06:36:55;1.90;;;0.80;;
1414;SDS011;702;49.466;11.086;2024-02-23T06:39:24;1.80;;;0.93;;
1414;SDS011;702;49.466;11.086;2024-02-23T06:41:51;2.17;;;0.80;;
1414;SDS011;702;49.466;11.086;2024-02-23T06:44:18;3.70;;;0.97;;
1414;SDS011;702;49.466;11.086;2024-02-23T06:46:46;3.27;;;1.00;;
1414;SDS011;702;49.466;11.086;2024-02-23T06:49:13;1.30;;;1.20;;
1414;SDS011;702;49.466;11.086;2024-02-23T06:51:40;3.67;;;0.90;;
1414;SDS011;702;49.466;11.086;2024-02-23T06:54:07;5.40;;;0.93;;
1414;SDS011;702;49.466;11.086;2024-02-23T06:56:36;6.03;;;1.57;;
1414;SDS011;702;49.466;11.086;2024-02-23T06:59:04;4.13;;;1.40;;
1414;SDS011;702;49.466;11.086;2024-02-23T07:01:31;6.10;;;1.40;;
1414;SDS011;702;49.466;11.086;2024-02-23T07:04:00;4.07;;;1.47;;
1414;SDS011;702;49.466;11.086;2024-02-23T07:06:28;3.50;;;2.10;;
1414;SDS011;702;49.466;11.086;2024-02-23T07:08:59;3.47;;;1.50;;
1414;SDS011;702;49.466;11.086;2024-02-23T07:11:26;1.77;;;1.00;;
1414;SDS011;702;49.466;11.086;2024-02-23T07:13:55;2.43;;;1.27;;
1414;SDS011;702;49.466;11.086;2024-02-23T07:16:24;2.40;;;1.13;;
1414;SDS011;702;49.466;11.086;2024-02-23T07:18:52;3.07;;;1.30;;
1414;SDS011;702;49.466;11.086;2024-02-23T07:21:19;1.77;;;1.10;;
1414;SDS011;702;49.466;11.086;2024-02-23T07:23:47;1.20;;;0.83;;
1414;SDS011;702;49.466;11.086;2024-02-23T07:26:14;1.90;;;1.20;;
1414;SDS011;702;49.466;11.086;2024-02-23T07:28:41;3.70;;;1.70;;
1414;SDS011;702;49.466;11.086;2024-02-23T07:31:11;1.80;;;1.27;;
1414;SDS011;702;49.466;11.086;2024-02-23T07:33:39;3.00;;;1.20;;
1414;SDS011;702;49.466;11.086;2024-02-23T07:36:07;2.60;;;1.10;;
1414;SDS011;702;49.466;11.086;2024-02-23T07:38:36;5.93;;;1.50;;
1414;SDS011;702;49.466;11.086;2024-02-23T07:41:03;6.97;;;1.93;;
1414;SDS011;702;49.466;11.086;2024-02-23T07:43:31;3.40;;;1.17;;
1414;SDS011;702;49.466;11.086;2024-02-23T07:45:58;1.73;;;1.17;;
1414;SDS011;702;49.466;11.086;2024-02-23T07:48:27;2.37;;;1.17;;
1414;SDS011;702;49.466;11.086;2024-02-23T07:50:54;4.70;;;1.17;;
1414;SDS011;702;49.466;11.086;2024-02-23T07:53:22;7.20;;;1.20;;
1414;SDS011;702;49.466;11.086;2024-02-23T07:55:49;4.33;;;1.23;;
1414;SDS011;702;49.466;11.086;2024-02-23T07:58:16;2.70;;;1.20;;
1414;SDS011;702;49.466;11.086;2024-02-23T08:00:44;2.33;;;0.83;;
1414;SDS011;702;49.466;11.086;2024-02-23T08:03:11;1.73;;;0.97;;
1414;SDS011;702;49.466;11.086;2024-02-23T08:05:41;1.53;;;0.90;;
1414;SDS011;702;49.466;11.086;2024-02-23T08:08:08;2.40;;;0.87;;
1414;SDS011;702;49.466;11.086;2024-02-23T08:10:35;0.90;;;0.57;;
1414;SDS011;702;49.466;11.086;2024-02-23T08:13:02;5.07;;;0.70;;
1414;SDS011;702;49.466;11.086;2024-02-23T08:15:30;2.73;;;0.90;;
1414;SDS011;702;49.466;11.086;2024-02-23T08:17:57;1.47;;;0.67;;
1414;SDS011;702;49.466;11.086;2024-02-23T08:20:24;3.97;;;1.03;;
1414;SDS011;702;49.466;11.086;2024-02-23T08:22:53;2.60;;;0.90;;
1414;SDS011;702;49.466;11.086;2024-02-23T08:25:28;4.90;;;1.00;;
1414;SDS011;702;49.466;11.086;2024-02-23T08:27:55;2.63;;;1.30;;
1414;SDS011;702;49.466;11.086;2024-02-23T08:30:24;1.33;;;0.60;;
1414;SDS011;702;49.466;11.086;2024-02-23T08:32:52;6.13;;;1.43;;
1414;SDS011;702;49.466;11.086;2024-02-23T08:35:19;2.90;;;0.90;;
1414;SDS011;702;49.466;11.086;2024-02-23T08:37:47;1.03;;;0.70;;
1414;SDS011;702;49.466;11.086;2024-02-23T08:40:15;3.40;;;0.93;;
1414;SDS011;702;49.466;11.086;2024-02-23T08:42:43;1.60;;;0.83;;
1414;SDS011;702;49.466;11.086;2024-02-23T08:45:11;5.43;;;1.40;;
1414;SDS011;702;49.466;11.086;2024-02-23T08:47:39;2.10;;;1.07;;
1414;SDS011;702;49.466;11.086;2024-02-23T08:50:08;2.70;;;1.07;;
1414;SDS011;702;49.466;11.086;2024-02-23T08:52:35;4.37;;;1.43;;
1414;SDS011;702;49.466;11.086;2024-02-23T08:55:03;2.97;;;1.23;;
1414;SDS011;702;49.466;11.086;2024-02-23T08:57:32;2.87;;;0.80;;
1414;SDS011;702;49.466;11.086;2024-02-23T08:59:59;2.20;;;0.97;;
1414;SDS011;702;49.466;11.086;2024-02-23T09:02:26;2.63;;;0.90;;
1414;SDS011;702;49.466;11.086;2024-02-23T09:04:54;1.40;;;0.90;;
1414;SDS011;702;49.466;11.086;2024-02-23T09:07:21;1.53;;;0.73;;
1414;SDS011;702;49.466;11.086;2024-02-23T09:09:49;0.97;;;0.70;;
1414;SDS011;702;49.466;11.086;2024-02-23T09:12:17;2.07;;;0.90;;
1414;SDS011;702;49.466;11.086;2024-02-23T09:14:46;1.10;;;0.60;;
1414;SDS011;702;49.466;11.086;2024-02-23T09:17:14;1.60;;;0.93;;
1414;SDS011;702;49.466;11.086;2024-02-23T09:19:41;1.90;;;0.70;;
1414;SDS011;702;49.466;11.086;2024-02-23T09:22:09;2.77;;;0.90;;
1414;SDS011;702;49.466;11.086;2024-02-23T09:24:38;2.50;;;0.90;;
1414;SDS011;702;49.466;11.086;2024-02-23T09:27:08;2.33;;;0.83;;
1414;SDS011;702;49.466;11.086;2024-02-23T09:29:36;1.70;;;0.67;;
1414;SDS011;702;49.466;11.086;2024-02-23T09:32:06;2.47;;;1.10;;
1414;SDS011;702;49.466;11.086;2024-02-23T09:34:34;1.37;;;0.90;;
1414;SDS011;702;49.466;11.086;2024-02-23T09:37:01;2.57;;;0.60;;
1414;SDS011;702;49.466;11.086;2024-02-23T09:39:29;1.33;;;0.77;;
1414;SDS011;702;49.466;11.086;2024-02-23T09:41:57;1.13;;;0.90;;
1414;SDS011;702;49.466;11.086;2024-02-23T09:44:24;2.87;;;0.57;;
1414;SDS011;702;49.466;11.086;2024-02-23T09:46:59;3.07;;;0.63;;
1414;SDS011;702;49.466;11.086;2024-02-23T09:49:35;4.10;;;0.90;;
1414;SDS011;702;49.466;11.086;2024-02-23T09:52:07;2.20;;;0.83;;
1414;SDS011;702;49.466;11.086;2024-02-23T09:54:36;3.00;;;0.70;;
1414;SDS011;702;49.466;11.086;2024-02-23T09:57:07;1.13;;;0.60;;
1414;SDS011;702;49.466;11.086;2024-02-23T09:59:37;1.83;;;0.60;;
1414;SDS011;702;49.466;11.086;2024-02-23T10:02:07;3.90;;;1.43;;
1414;SDS011;702;49.466;11.086;2024-02-23T10:04:38;2.20;;;1.07;;
1414;SDS011;702;49.466;11.086;2024-02-23T10:07:06;2.60;;;1.03;;
1414;SDS011;702;49.466;11.086;2024-02-23T10:09:37;0.67;;;0.50;;
1414;SDS011;702;49.466;11.086;2024-02-23T10:12:06;2.27;;;0.70;;
1414;SDS011;702;49.466;11.086;2024-02-23T10:14:35;2.40;;;0.77;;
1414;SDS011;702;49.466;11.086;2024-02-23T10:17:06;4.27;;;1.13;;
1414;SDS011;702;49.466;11.086;2024-02-23T10:19:35;2.20;;;0.90;;
1414;SDS011;702;49.466;11.086;2024-02-23T10:22:05;2.83;;;1.67;;
1414;SDS011;702;49.466;11.086;2024-02-23T10:24:33;1.60;;;0.73;;
1414;SDS011;702;49.466;11.086;2024-02-23T10:27:03;3.60;;;0.87;;
1414;SDS011;702;49.466;11.086;2024-02-23T10:29:32;4.53;;;0.90;;
1414;SDS011;702;49.466;11.086;2024-02-23T10:32:01;2.43;;;0.90;;
1414;SDS011;702;49.466;11.086;2024-02-23T10:34:29;1.50;;;0.60;;
1414;SDS011;702;49.466;11.086;2024-02-23T10:36:58;4.10;;;1.00;;
1414;SDS011;702;49.466;11.086;2024-02-23T10:39:28;1.77;;;0.70;;
1414;SDS011;702;49.466;11.086;2024-02-23T10:41:57;1.50;;;1.10;;
1414;SDS011;702;49.466;11.086;2024-02-23T10:44:28;2.00;;;1.10;;
1414;SDS011;702;49.466;11.086;2024-02-23T10:46:57;2.23;;;1.40;;
1414;SDS011;702;49.466;11.086;2024-02-23T10:49:26;4.20;;;1.33;;
1414;SDS011;702;49.466;11.086;2024-02-23T10:51:55;1.83;;;0.90;;
1414;SDS011;702;49.466;11.086;2024-02-23T10:54:23;1.67;;;0.70;;
1414;SDS011;702;49.466;11.086;2024-02-23T10:56:58;3.27;;;0.73;;
1414;SDS011;702;49.466;11.086;2024-02-23T10:59:55;2.07;;;0.60;;
1414;SDS011;702;49.466;11.086;2024-02-23T11:02:58;0.90;;;0.87;;
1414;SDS011;702;49.466;11.086;2024-02-23T11:06:27;2.60;;;0.70;;
1414;SDS011;702;49.466;11.086;2024-02-23T11:09:04;1.50;;;0.87;;
1414;SDS011;702;49.466;11.086;2024-02-23T11:11:35;2.10;;;1.20;;
1414;SDS011;702;49.466;11.086;2024-02-23T11:14:07;2.87;;;0.83;;
1414;SDS011;702;49.466;11.086;2024-02-23T11:16:38;2.27;;;0.60;;
1414;SDS011;702;49.466;11.086;2024-02-23T11:19:08;1.47;;;0.80;;
1414;SDS011;702;49.466;11.086;2024-02-23T11:21:37;2.00;;;0.83;;
1414;SDS011;702;49.466;11.086;2024-02-23T11:24:08;1.77;;;1.00;;
1414;SDS011;702;49.466;11.086;2024-02-23T11:26:44;1.90;;;0.40;;
1414;SDS011;702;49.466;11.086;2024-02-23T11:29:14;5.03;;;0.80;;
1414;SDS011;702;49.466;11.086;2024-02-23T11:31:45;2.20;;;0.80;;
1414;SDS011;702;49.466;11.086;2024-02-23T11:34:13;2.10;;;0.80;;
1414;SDS011;702;49.466;11.086;2024-02-23T11:36:50;7.50;;;0.87;;
1414;SDS011;702;49.466;11.086;2024-02-23T11:39:20;1.87;;;0.50;;
1414;SDS011;702;49.466;11.086;2024-02-23T11:41:49;1.47;;;0.60;;
1414;SDS011;702;49.466;11.086;2024-02-23T11:44:17;1.03;;;0.60;;
1414;SDS011;702;49.466;11.086;2024-02-23T11:46:46;1.60;;;0.80;;
1414;SDS011;702;49.466;11.086;2024-02-23T11:49:13;2.00;;;0.70;;
1414;SDS011;702;49.466;11.086;2024-02-23T11:51:42;2.70;;;0.63;;
1414;SDS011;702;49.466;11.086;2024-02-23T11:54:09;2.97;;;0.93;;
1414;SDS011;702;49.466;11.086;2024-02-23T11:56:37;1.90;;;1.10;;
1414;SDS011;702;49.466;11.086;2024-02-23T11:59:08;2.53;;;0.90;;
1414;SDS011;702;49.466;11.086;2024-02-23T12:01:36;1.80;;;0.70;;
1414;SDS011;702;49.466;11.086;2024-02-23T12:04:04;2.17;;;0.90;;
1414;SDS011;702;49.466;11.086;2024-02-23T12:06:30;2.00;;;1.03;;
1414;SDS011;702;49.466;11.086;2024-02-23T12:08:58;1.73;;;0.90;;
1414;SDS011;702;49.466;11.086;2024-02-23T12:11:26;1.10;;;0.83;;
1414;SDS011;702;49.466;11.086;2024-02-23T12:13:55;2.80;;;1.10;;
1414;SDS011;702;49.466;11.086;2024-02-23T12:16:24;4.13;;;1.57;;
1414;SDS011;702;49.466;11.086;2024-02-23T12:18:52;2.37;;;1.27;;
1414;SDS011;702;49.466;11.086;2024-02-23T12:21:22;1.83;;;0.80;;
1414;SDS011;702;49.466;11.086;2024-02-23T12:23:50;2.77;;;0.87;;
1414;SDS011;702;49.466;11.086;2024-02-23T12:26:18;1.50;;;0.93;;
1414;SDS011;702;49.466;11.086;2024-02-23T12:28:46;2.23;;;0.83;;
1414;SDS011;702;49.466;11.086;2024-02-23T12:31:13;1.77;;;0.80;;
1414;SDS011;702;49.466;11.086;2024-02-23T12:33:42;2.00;;;0.87;;
1414;SDS011;702;49.466;11.086;2024-02-23T12:36:13;1.10;;;0.70;;
1414;SDS011;702;49.466;11.086;2024-02-23T12:38:41;2.30;;;1.07;;
1414;SDS011;702;49.466;11.086;2024-02-23T12:41:08;2.20;;;1.07;;
1414;SDS011;702;49.466;11.086;2024-02-23T12:43:37;3.30;;;1.33;;
1414;SDS011;702;49.466;11.086;2024-02-23T12:46:04;1.83;;;1.00;;
1414;SDS011;702;49.466;11.086;2024-02-23T12:48:33;1.67;;;1.20;;
1414;SDS011;702;49.466;11.086;2024-02-23T12:51:03;1.80;;;1.00;;
1414;SDS011;702;49.466;11.086;2024-02-23T12:53:32;2.00;;;1.30;;
1414;SDS011;702;49.466;11.086;2024-02-23T12:56:02;3.27;;;1.10;;
1414;SDS011;702;49.466;11.086;2024-02-23T12:58:31;2.00;;;1.10;;
1414;SDS011;702;49.466;11.086;2024-02-23T13:00:58;2.33;;;1.07;;
1414;SDS011;702;49.466;11.086;2024-02-23T13:03:26;0.83;;;0.80;;
1414;SDS011;702;49.466;11.086;2024-02-23T13:05:54;2.83;;;0.70;;
1414;SDS011;702;49.466;11.086;2024-02-23T13:08:23;1.93;;;0.57;;
1414;SDS011;702;49.466;11.086;2024-02-23T13:10:51;1.33;;;0.87;;
1414;SDS011;702;49.466;11.086;2024-02-23T13:13:20;3.60;;;1.20;;
1414;SDS011;702;49.466;11.086;2024-02-23T13:15:49;3.00;;;1.23;;
1414;SDS011;702;49.466;11.086;2024-02-23T13:18:18;0.90;;;0.50;;
1414;SDS011;702;49.466;11.086;2024-02-23T13:20:46;0.80;;;0.57;;
1414;SDS011;702;49.466;11.086;2024-02-23T13:23:13;1.60;;;0.80;;
1414;SDS011;702;49.466;11.086;2024-02-23T13:25:42;1.23;;;0.73;;
1414;SDS011;702;49.466;11.086;2024-02-23T13:28:12;0.80;;;0.60;;
1414;SDS011;702;49.466;11.086;2024-02-23T13:30:40;1.57;;;0.80;;
1414;SDS011;702;49.466;11.086;2024-02-23T13:33:08;0.80;;;0.53;;
1414;SDS011;702;49.466;11.086;2024-02-23T13:35:36;1.03;;;0.50;;
1414;SDS011;702;49.466;11.086;2024-02-23T13:38:04;0.93;;;0.60;;
1414;SDS011;702;49.466;11.086;2024-02-23T13:40:32;1.23;;;0.70;;
1414;SDS011;702;49.466;11.086;2024-02-23T13:43:01;0.87;;;0.50;;
1414;SDS011;702;49.466;11.086;2024-02-23T13:45:30;0.93;;;0.90;;
1414;SDS011;702;49.466;11.086;2024-02-23T13:47:58;1.17;;;0.60;;
1414;SDS011;702;49.466;11.086;2024-02-23T13:50:28;2.10;;;0.70;;
1414;SDS011;702;49.466;11.086;2024-02-23T13:52:57;1.87;;;0.73;;
1414;SDS011;702;49.466;11.086;2024-02-23T13:55:25;2.27;;;0.70;;
1414;SDS011;702;49.466;11.086;2024-02-23T13:57:53;1.20;;;0.90;;
1414;SDS011;702;49.466;11.086;2024-02-23T14:00:22;1.53;;;1.00;;
1414;SDS011;702;49.466;11.086;2024-02-23T14:02:50;1.07;;;0.83;;
1414;SDS011;702;49.466;11.086;2024-02-23T14:05:17;3.60;;;0.77;;
1414;SDS011;702;49.466;11.086;2024-02-23T14:07:47;1.37;;;0.90;;
1414;SDS011;702;49.466;11.086;2024-02-23T14:10:14;1.40;;;1.00;;
1414;SDS011;702;49.466;11.086;2024-02-23T14:12:42;0.70;;;0.60;;
1414;SDS011;702;49.466;11.086;2024-02-23T14:15:09;1.27;;;0.93;;
1414;SDS011;702;49.466;11.086;2024-02-23T14:17:39;2.30;;;1.03;;
1414;SDS011;702;49.466;11.086;2024-02-23T14:20:07;2.90;;;1.43;;
1414;SDS011;702;49.466;11.086;2024-02-23T14:22:35;1.60;;;1.03;;
1414;SDS011;702;49.466;11.086;2024-02-23T14:25:03;1.63;;;0.73;;
1414;SDS011;702;49.466;11.086;2024-02-23T14:27:33;2.10;;;0.77;;
1414;SDS011;702;49.466;11.086;2024-02-23T14:30:00;1.53;;;1.10;;
1414;SDS011;702;49.466;11.086;2024-02-23T14:32:29;2.03;;;1.00;;
1414;SDS011;702;49.466;11.086;2024-02-23T14:34:58;0.87;;;0.67;;
1414;SDS011;702;49.466;11.086;2024-02-23T14:37:26;3.53;;;1.20;;
1414;SDS011;702;49.466;11.086;2024-02-23T14:39:53;3.60;;;1.43;;
1414;SDS011;702;49.466;11.086;2024-02-23T14:42:21;1.80;;;1.10;;
1414;SDS011;702;49.466;11.086;2024-02-23T14:44:48;4.07;;;0.80;;
1414;SDS011;702;49.466;11.086;2024-02-23T14:47:16;1.53;;;0.50;;
1414;SDS011;702;49.466;11.086;2024-02-23T14:49:43;0.70;;;0.70;;
1414;SDS011;702;49.466;11.086;2024-02-23T14:52:12;2.53;;;1.20;;
1414;SDS011;702;49.466;11.086;2024-02-23T14:54:40;1.90;;;0.97;;
1414;SDS011;702;49.466;11.086;2024-02-23T14:57:10;7.23;;;1.00;;
1414;SDS011;702;49.466;11.086;2024-02-23T14:59:37;1.77;;;1.00;;
1414;SDS011;702;49.466;11.086;2024-02-23T15:02:06;3.63;;;1.20;;
1414;SDS011;702;49.466;11.086;2024-02-23T15:04:35;1.87;;;1.10;;
1414;SDS011;702;49.466;11.086;2024-02-23T15:07:03;2.57;;;1.00;;
1414;SDS011;702;49.466;11.086;2024-02-23T15:09:33;3.00;;;1.50;;
1414;SDS011;702;49.466;11.086;2024-02-23T15:12:00;2.20;;;1.40;;
1414;SDS011;702;49.466;11.086;2024-02-23T15:14:28;2.90;;;1.57;;
1414;SDS011;702;49.466;11.086;2024-02-23T15:16:55;2.70;;;1.20;;
1414;SDS011;702;49.466;11.086;2024-02-23T15:19:23;1.93;;;0.80;;
1414;SDS011;702;49.466;11.086;2024-02-23T15:21:52;2.10;;;1.30;;
1414;SDS011;702;49.466;11.086;2024-02-23T15:24:21;1.87;;;1.10;;